Paw Paw, Illinois
Current Conditions -  °F | °C
As of 5:15 AM on Sunday 21 Dec 2014 (Local Time) from KRPJ Reporting Station
Haze Haze  
Wind Chill: 24°   Ceiling: 3700
Heat Index: 32°   Visibility: 5mi
Dew Point: 30°   Wind: 9mph
Humidity: 93%   Direction: 170°S
Pressure: 30.17"   Gusts: NA
Location:  41.69°N, 88.98°W
Report Text: KRPJ 211115Z AUTO 17008KT 5SM BR SCT020 OVC037 00/M01 A3017 RMK AO2 T10021012
Loading
Personal Weather Stations






























Interactive Weather Map New forecast layout! Learn more

10-Day Weather Forecast

Advertisements
Track Severe Weather on mobile